Time;durP1;ratioP1;P1;durP2;ratioP2;P2;SDS_P1;SDS_P2;PMS_P1;PMS_P2;Temp;Humidity;BMP_temperature;BMP_pressure;BME280_temperature;BME280_humidity;BME280_pressure;Samples;Min_cycle;Max_cycle;Signal;HPM_P1;HPM_P2
2021/04/23 00:02:02;;;;;;;12.98;7.90;;;;;;;29.51;55.87;100843.97;5034922;28;70217;-32
2021/04/23 00:04:32;;;;;;;13.52;10.73;;;;;;;29.59;56.49;100851.84;5039583;28;66093;-34
2021/04/23 00:07:03;;;;;;;27.88;15.45;;;;;;;29.68;58.31;100856.00;5004834;28;69961;-33
2021/04/23 00:09:35;;;;;;;31.98;17.05;;;;;;;29.61;59.83;100842.47;5017463;28;65741;-35
2021/04/23 00:12:12;;;;;;;22.77;17.95;;;;;;;29.57;61.56;100848.50;5019475;28;70630;-34
2021/04/23 00:14:42;;;;;;;25.42;17.45;;;;;;;29.67;60.64;100870.56;5024496;28;65173;-39
2021/04/23 00:17:12;;;;;;;28.13;17.50;;;;;;;29.76;60.37;100863.06;5039011;28;69988;-36
2021/04/23 00:19:44;;;;;;;21.60;16.23;;;;;;;29.82;60.76;100878.41;5039277;28;65554;-35
2021/04/23 00:22:15;;;;;;;25.90;15.63;;;;;;;29.92;60.43;100884.22;5038157;28;69986;-35
2021/04/23 00:24:44;;;;;;;37.80;16.60;;;;;;;29.99;60.94;100882.28;5039320;28;65500;-36
2021/04/23 00:27:14;;;;;;;28.48;15.98;;;;;;;30.00;61.25;100880.41;5039326;28;69842;-35
2021/04/23 00:29:44;;;;;;;25.25;15.35;;;;;;;30.05;61.45;100883.31;5018660;28;66109;-37
2021/04/23 00:35:13;;;;;;;43.30;16.83;;;;;;;30.21;61.35;100893.66;5023562;28;65314;-36
2021/04/23 00:37:47;;;;;;;33.53;15.85;;;;;;;30.30;60.61;100896.13;5035053;28;70030;-35
2021/04/23 00:40:27;;;;;;;31.67;16.50;;;;;;;30.35;60.83;100899.84;5019129;28;66157;-35
2021/04/23 00:43:00;;;;;;;21.80;15.68;;;;;;;30.40;60.41;100907.34;5018811;28;69933;-35
2021/04/23 00:45:31;;;;;;;27.23;15.90;;;;;;;30.44;60.28;100911.25;5019590;28;66120;-35
2021/04/23 00:48:05;;;;;;;17.33;14.70;;;;;;;30.48;59.45;100915.22;5029416;28;69983;-35
2021/04/23 00:51:01;;;;;;;27.45;15.00;;;;;;;30.42;59.45;100905.22;5018918;28;65281;-35
2021/04/23 00:53:35;;;;;;;25.55;14.95;;;;;;;30.47;59.09;100919.75;5014389;28;69919;-36
2021/04/23 00:56:09;;;;;;;32.20;14.48;;;;;;;30.53;58.88;100923.47;5019390;28;65909;-36
2021/04/23 00:58:39;;;;;;;21.70;14.20;;;;;;;30.61;58.84;100942.19;5032686;28;69294;-36
2021/04/23 01:01:18;;;;;;;24.42;13.93;;;;;;;30.64;58.86;100947.16;5019650;28;66054;-36
2021/04/23 01:03:48;;;;;;;15.68;13.70;;;;;;;30.63;58.83;100940.09;5016665;28;69472;-36
2021/04/23 01:06:20;;;;;;;21.23;13.38;;;;;;;30.67;58.94;100948.59;5019187;28;65945;-36
2021/04/23 01:08:51;;;;;;;18.95;12.80;;;;;;;30.72;58.58;100949.59;5033540;28;69966;-36
2021/04/23 01:11:23;;;;;;;19.88;13.90;;;;;;;30.68;58.09;100934.84;5024647;28;65114;-35
2021/04/23 01:13:54;;;;;;;;;;;;;;;30.75;58.45;100947.53;5018532;28;70414;-36
2021/04/23 01:16:25;;;;;;;18.77;13.15;;;;;;;30.82;58.40;100951.06;5017521;28;66402;-36
2021/04/23 01:18:55;;;;;;;20.30;12.82;;;;;;;30.84;58.36;100959.78;5029616;28;70011;-36
2021/04/23 01:21:32;;;;;;;19.87;12.57;;;;;;;30.81;58.34;100943.97;5037402;28;66072;-36
2021/04/23 01:24:04;;;;;;;13.07;11.82;;;;;;;30.81;57.96;100946.66;5024252;28;69175;-36
2021/04/23 01:26:38;;;;;;;17.40;12.43;;;;;;;30.83;57.90;100950.00;5023113;28;66174;-35
2021/04/23 01:29:09;;;;;;;12.65;11.60;;;;;;;30.91;57.84;100964.09;5028530;28;68797;-36
2021/04/23 01:31:42;;;;;;;16.33;12.80;;;;;;;30.89;57.92;100962.66;5025661;28;65909;-36
2021/04/23 01:34:16;;;;;;;15.52;12.15;;;;;;;30.97;57.34;100967.00;5027587;28;70033;-36
2021/04/23 01:36:46;;;;;;;13.68;12.07;;;;;;;30.98;57.90;100968.66;5026569;28;65237;-36
2021/04/23 01:39:19;;;;;;;19.17;11.73;;;;;;;30.95;57.93;100967.19;5027734;28;69105;-35
2021/04/23 01:41:51;;;;;;;16.40;11.45;;;;;;;31.01;57.75;100966.34;5026949;28;66241;-35
2021/04/23 01:44:21;;;;;;;18.73;11.93;;;;;;;31.04;57.16;100967.78;5028352;28;69823;-35
2021/04/23 01:46:53;;;;;;;12.43;11.27;;;;;;;31.07;57.44;100956.50;5024372;28;66012;-36
2021/04/23 01:49:23;;;;;;;11.73;10.52;;;;;;;31.08;57.24;100950.84;5031597;28;69305;-36
2021/04/23 01:52:00;;;;;;;13.48;10.80;;;;;;;31.04;56.98;100946.13;5024253;28;65774;-37
2021/04/23 01:54:31;;;;;;;11.30;10.20;;;;;;;31.12;57.02;100954.81;5026100;28;70038;-36
2021/04/23 01:57:03;;;;;;;14.40;11.20;;;;;;;31.14;57.34;100963.50;5029478;28;65003;-36
2021/04/23 01:59:36;;;;;;;12.73;11.23;;;;;;;31.05;56.91;100935.03;5031924;28;69947;-36
2021/04/23 02:02:05;;;;;;;;;;;;;;;31.11;57.65;100958.53;5017348;28;65465;-36
2021/04/23 02:04:35;;;;;;;13.07;10.60;;;;;;;31.23;57.16;100963.25;5018097;28;70549;-36
2021/04/23 02:07:08;;;;;;;11.07;10.05;;;;;;;31.23;57.20;100955.13;5017183;28;66054;-36
2021/04/23 02:09:39;;;;;;;12.23;10.88;;;;;;;31.23;57.20;100955.97;5033769;28;70226;-37
2021/04/23 02:12:10;;;;;;;12.15;10.23;;;;;;;31.26;57.43;100946.53;5017384;28;66044;-35
2021/04/23 02:14:40;;;;;;;11.10;9.63;;;;;;;31.27;57.28;100949.03;5015764;28;69969;-35
2021/04/23 02:17:10;;;;;;;10.15;9.45;;;;;;;31.30;56.90;100948.59;5016915;28;66582;-36
2021/04/23 02:19:39;;;;;;;10.23;9.45;;;;;;;31.31;56.73;100938.59;5033133;28;69901;-36
2021/04/23 02:22:09;;;;;;;13.93;9.00;;;;;;;31.35;57.20;100947.94;5015886;28;65396;-35
2021/04/23 02:24:39;;;;;;;9.88;9.07;;;;;;;31.37;57.17;100940.44;5015523;28;70935;-36
2021/04/23 02:27:09;;;;;;;9.30;8.57;;;;;;;31.40;56.61;100937.31;5016865;28;65534;-36
2021/04/23 02:29:39;;;;;;;12.50;8.70;;;;;;;31.42;57.03;100942.47;5020087;28;70196;-36
2021/04/23 02:32:08;;;;;;;10.25;8.93;;;;;;;31.44;57.03;100946.63;5036803;28;66018;-36
2021/04/23 02:34:38;;;;;;;9.48;8.55;;;;;;;31.49;56.84;100952.22;5037051;28;69887;-36
2021/04/23 02:37:08;;;;;;;9.45;8.52;;;;;;;31.50;56.79;100951.16;5032263;28;66301;-35
2021/04/23 02:39:38;;;;;;;9.65;8.80;;;;;;;31.48;57.16;100941.59;5024665;28;70044;-36
2021/04/23 02:42:08;;;;;;;9.18;8.35;;;;;;;31.55;56.84;100947.78;5020908;28;66531;-36
2021/04/23 02:44:38;;;;;;;8.88;8.13;;;;;;;31.56;57.04;100939.41;5021623;28;70589;-36
2021/04/23 02:47:08;;;;;;;9.02;8.27;;;;;;;31.58;57.23;100940.03;5018530;28;65224;-37
2021/04/23 02:49:38;;;;;;;9.32;8.38;;;;;;;31.59;56.72;100932.72;5014991;28;70114;-37
2021/04/23 02:52:09;;;;;;;8.52;7.93;;;;;;;31.60;57.20;100924.38;5016775;28;66684;-36
2021/04/23 02:54:38;;;;;;;9.23;7.47;;;;;;;31.64;56.89;100926.63;5018372;28;69370;-36
2021/04/23 02:57:08;;;;;;;10.55;7.35;;;;;;;31.66;56.53;100924.53;5024418;28;65960;-36
2021/04/23 02:59:41;;;;;;;11.52;7.90;;;;;;;31.66;56.74;100917.22;5021728;28;69719;-36
2021/04/23 03:02:11;;;;;;;8.55;7.78;;;;;;;31.68;56.45;100909.69;5023958;28;65775;-36
2021/04/23 03:04:41;;;;;;;8.82;7.95;;;;;;;31.70;56.45;100906.75;5026306;28;69964;-36
2021/04/23 03:07:11;;;;;;;7.72;7.15;;;;;;;31.74;56.76;100908.78;5017557;28;66547;-37
2021/04/23 03:09:41;;;;;;;9.50;7.07;;;;;;;31.76;56.63;100916.69;5017827;28;69123;-37
2021/04/23 03:12:11;;;;;;;8.70;7.40;;;;;;;31.77;56.76;100915.66;5023459;28;66177;-37
2021/04/23 03:14:41;;;;;;;8.75;6.85;;;;;;;31.80;57.05;100907.06;5024019;28;70592;-36
2021/04/23 03:17:11;;;;;;;8.13;7.10;;;;;;;31.85;56.72;100914.53;5026545;28;65978;-37
2021/04/23 03:19:41;;;;;;;10.50;6.90;;;;;;;31.87;56.77;100913.22;5028439;28;69880;-36
2021/04/23 03:22:11;;;;;;;7.45;6.85;;;;;;;31.88;56.44;100909.47;5032706;28;65155;-36
2021/04/23 03:24:41;;;;;;;7.60;6.90;;;;;;;31.91;56.26;100902.75;5024619;28;69898;-36
2021/04/23 03:27:11;;;;;;;8.18;6.38;;;;;;;31.94;56.33;100908.59;5025628;28;65420;-36
2021/04/23 03:29:42;;;;;;;7.32;6.82;;;;;;;31.98;56.40;100906.25;5020772;28;70406;-37
2021/04/23 03:32:13;;;;;;;7.57;7.05;;;;;;;31.99;56.44;100903.31;5029043;28;65299;-37
2021/04/23 03:34:43;;;;;;;7.32;6.72;;;;;;;32.03;56.23;100896.34;5024329;28;69920;-36
2021/04/23 03:37:14;;;;;;;6.97;6.28;;;;;;;32.02;55.88;100897.44;5022010;28;66334;-36
2021/04/23 03:39:44;;;;;;;9.95;6.68;;;;;;;32.10;56.25;100896.28;5022397;28;69904;-35
2021/04/23 03:42:14;;;;;;;10.20;6.40;;;;;;;32.14;55.74;100896.66;5023062;28;64878;-35
2021/04/23 03:44:44;;;;;;;7.05;6.45;;;;;;;32.15;55.98;100899.16;5029858;28;69664;-36
2021/04/23 03:47:16;;;;;;;8.50;5.63;;;;;;;32.18;55.73;100892.41;5027211;28;65461;-37
2021/04/23 03:49:47;;;;;;;6.88;6.28;;;;;;;32.19;55.97;100883.22;5025982;28;71459;-36
2021/04/23 03:52:18;;;;;;;;;;;;;;;32.15;56.42;100871.16;5023145;28;66627;-36
2021/04/23 03:54:48;;;;;;;6.85;5.97;;;;;;;32.25;55.67;100876.88;5025598;28;70279;-36
2021/04/23 03:57:19;;;;;;;11.10;5.72;;;;;;;32.26;56.23;100873.09;5023576;28;66352;-36
2021/04/23 03:59:49;;;;;;;6.75;6.30;;;;;;;32.28;56.15;100862.84;5025552;28;69291;-36
2021/04/23 04:02:19;;;;;;;6.15;5.68;;;;;;;32.26;55.69;100862.25;5023720;28;66200;-36
2021/04/23 04:04:49;;;;;;;6.00;5.40;;;;;;;32.29;56.13;100856.38;5022626;28;69885;-37
2021/04/23 04:07:19;;;;;;;6.25;5.75;;;;;;;32.29;56.07;100856.38;5028953;28;65406;-37
2021/04/23 04:09:49;;;;;;;6.75;6.25;;;;;;;32.31;55.93;100848.00;5027762;28;70187;-37
2021/04/23 04:12:18;;;;;;;5.63;5.13;;;;;;;32.32;55.41;100845.06;5025483;28;65447;-36
2021/04/23 04:14:48;;;;;;;5.97;5.50;;;;;;;32.34;55.67;100842.91;5026782;28;69871;-36
2021/04/23 04:17:19;;;;;;;5.38;4.97;;;;;;;32.37;55.44;100831.59;5025154;28;65093;-35
2021/04/23 04:19:49;;;;;;;5.32;4.93;;;;;;;32.38;55.54;100822.41;5021473;28;69347;-36
2021/04/23 04:22:19;;;;;;;6.10;5.55;;;;;;;32.40;55.70;100823.00;5025851;28;65372;-36
2021/04/23 04:24:48;;;;;;;5.63;5.30;;;;;;;32.41;55.64;100821.13;5032788;28;70044;-35
2021/04/23 04:27:19;;;;;;;5.57;5.10;;;;;;;32.42;55.77;100803.75;5024978;28;66910;-35
2021/04/23 04:29:48;;;;;;;5.78;4.95;;;;;;;32.44;55.64;100809.78;5020535;28;71053;-37
2021/04/23 04:32:20;;;;;;;5.38;4.93;;;;;;;32.45;56.11;100806.00;5022393;28;66252;-36
2021/04/23 04:34:50;;;;;;;4.88;4.57;;;;;;;32.46;55.96;100802.28;5021672;28;69404;-37
2021/04/23 04:37:20;;;;;;;5.55;5.18;;;;;;;32.47;55.72;100788.47;5022701;28;66392;-36
2021/04/23 04:39:50;;;;;;;5.10;4.50;;;;;;;32.51;55.52;100779.84;5021455;28;70441;-37
2021/04/23 04:42:22;;;;;;;5.35;4.85;;;;;;;32.52;55.62;100774.19;5030757;28;65342;-39
2021/04/23 04:44:52;;;;;;;7.82;5.03;;;;;;;32.56;55.85;100766.38;5022870;28;69125;-37
2021/04/23 04:47:22;;;;;;;6.60;4.80;;;;;;;32.57;55.42;100760.75;5028654;28;65305;-37
2021/04/23 04:49:52;;;;;;;7.75;4.55;;;;;;;32.57;56.00;100755.31;5019667;28;69149;-36
2021/04/23 04:52:22;;;;;;;5.47;5.00;;;;;;;32.61;55.82;100752.94;5021276;28;66024;-36
2021/04/23 04:54:52;;;;;;;5.30;4.90;;;;;;;32.63;55.83;100742.69;5021694;28;70169;-36
2021/04/23 04:57:22;;;;;;;4.82;4.43;;;;;;;32.65;55.80;100745.97;5025083;28;65171;-37
2021/04/23 04:59:52;;;;;;;4.85;4.45;;;;;;;32.64;55.93;100730.75;5021874;28;70120;-37
2021/04/23 05:02:22;;;;;;;4.97;4.55;;;;;;;32.65;55.60;100729.66;5025818;28;66346;-36
2021/04/23 05:04:52;;;;;;;4.57;4.05;;;;;;;32.68;55.67;100723.75;5029352;28;69368;-35
2021/04/23 05:07:22;;;;;;;5.32;4.43;;;;;;;32.69;55.60;100709.97;5033181;28;66171;-36
2021/04/23 05:09:51;;;;;;;5.00;4.47;;;;;;;32.68;55.58;100708.31;5024131;28;69986;-36
2021/04/23 05:12:22;;;;;;;4.65;4.30;;;;;;;32.71;55.50;100699.69;5024411;28;65934;-36
2021/04/23 05:14:51;;;;;;;4.47;4.18;;;;;;;32.75;55.64;100701.94;5019792;28;69935;-36
2021/04/23 05:17:21;;;;;;;4.47;4.13;;;;;;;32.76;55.58;100695.41;5022461;28;66111;-37
2021/04/23 05:19:51;;;;;;;6.93;4.50;;;;;;;32.77;55.75;100694.38;5028470;28;69019;-39
2021/04/23 05:22:21;;;;;;;4.85;4.45;;;;;;;32.81;55.51;100684.66;5019993;28;65621;-36
2021/04/23 05:24:51;;;;;;;4.50;4.10;;;;;;;32.82;55.85;100681.72;5029406;28;70007;-36
2021/04/23 05:27:21;;;;;;;6.05;4.30;;;;;;;32.82;55.54;100665.44;5024239;28;65283;-36
2021/04/23 05:29:51;;;;;;;9.60;4.18;;;;;;;32.84;55.56;100671.44;5023499;28;68856;-36
2021/04/23 05:32:20;;;;;;;4.25;3.83;;;;;;;32.89;55.23;100671.53;5025357;28;66211;-37
2021/04/23 05:34:50;;;;;;;4.53;4.13;;;;;;;32.89;55.40;100655.25;5020420;28;70129;-36
2021/04/23 05:37:21;;;;;;;6.70;4.10;;;;;;;32.91;55.35;100650.41;5023146;28;66428;-37
2021/04/23 05:39:51;;;;;;;4.18;3.78;;;;;;;32.94;55.45;100641.78;5024870;28;70144;-35
2021/04/23 05:42:21;;;;;;;6.07;3.83;;;;;;;32.98;55.37;100635.84;5019484;28;65116;-36
2021/04/23 05:44:51;;;;;;;4.00;3.70;;;;;;;33.01;55.10;100641.66;5029411;28;67738;-37
2021/04/23 05:47:23;;;;;;;7.13;3.95;;;;;;;33.05;54.91;100625.72;5022042;28;66007;-36
2021/04/23 05:49:53;;;;;;;3.63;3.30;;;;;;;33.06;55.04;100617.31;5020107;28;70888;-37
2021/04/23 05:52:24;;;;;;;5.18;4.07;;;;;;;33.08;54.83;100598.06;5027501;28;67490;-37
2021/04/23 05:54:54;;;;;;;5.70;3.50;;;;;;;33.14;54.96;100602.50;5019075;28;69802;-37
2021/04/23 05:57:25;;;;;;;3.15;2.95;;;;;;;33.16;54.78;100608.53;5020037;28;65988;-37
2021/04/23 05:59:54;;;;;;;3.63;3.33;;;;;;;33.17;54.70;100596.59;5023413;28;69666;-36
2021/04/23 06:02:24;;;;;;;4.00;3.33;;;;;;;33.19;54.83;100594.47;5023717;28;65209;-36
2021/04/23 06:04:56;;;;;;;3.28;3.00;;;;;;;33.20;54.70;100585.22;5020311;28;69137;-36
2021/04/23 06:07:26;;;;;;;3.78;3.47;;;;;;;33.19;54.85;100583.59;5021269;28;66215;-36
2021/04/23 06:09:55;;;;;;;3.60;3.20;;;;;;;33.17;55.03;100574.84;5024707;28;68972;-36
2021/04/23 06:12:25;;;;;;;4.15;3.20;;;;;;;33.19;55.07;100578.16;5025844;28;66006;-36
2021/04/23 06:14:54;;;;;;;2.83;2.63;;;;;;;33.20;54.99;100566.22;5030259;28;70050;-36
2021/04/23 06:17:24;;;;;;;6.95;3.13;;;;;;;33.25;54.86;100568.19;5024657;28;65303;-36
2021/04/23 06:19:54;;;;;;;3.38;3.17;;;;;;;33.29;54.72;100559.31;5026817;28;68986;-37
2021/04/23 06:22:24;;;;;;;5.65;3.38;;;;;;;33.32;54.89;100550.69;5043970;28;65991;-35
2021/04/23 06:24:54;;;;;;;3.00;2.80;;;;;;;33.34;54.58;100553.13;5021604;28;69494;-36
2021/04/23 06:27:23;;;;;;;5.45;3.25;;;;;;;33.39;54.72;100550.50;5022579;28;66011;-35
2021/04/23 06:29:53;;;;;;;3.35;3.15;;;;;;;33.38;54.70;100544.25;5023319;28;68889;-36
2021/04/23 06:32:23;;;;;;;3.45;3.20;;;;;;;33.41;54.74;100536.69;5015928;28;66626;-37
2021/04/23 06:34:53;;;;;;;3.92;3.10;;;;;;;33.43;54.67;100532.63;5019173;28;70418;-37
2021/04/23 06:37:22;;;;;;;3.20;3.00;;;;;;;33.42;54.56;100524.72;5025743;28;65210;-36
2021/04/23 06:39:52;;;;;;;3.38;3.08;;;;;;;33.46;54.37;100507.69;5018072;28;68968;-36
2021/04/23 06:42:22;;;;;;;5.00;3.55;;;;;;;33.49;54.47;100506.34;5025224;28;65518;-36
2021/04/23 06:44:51;;;;;;;5.43;3.10;;;;;;;33.49;54.55;100500.91;5021246;28;68745;-38
2021/04/23 06:47:21;;;;;;;4.78;2.88;;;;;;;33.51;54.42;100493.31;5024308;28;65205;-36
2021/04/23 06:49:51;;;;;;;3.35;3.05;;;;;;;33.50;54.56;100487.06;5029677;28;69991;-36
2021/04/23 06:52:20;;;;;;;3.28;2.97;;;;;;;33.52;54.57;100478.69;5023200;28;64612;-36
2021/04/23 06:54:50;;;;;;;3.72;3.03;;;;;;;33.51;54.64;100471.56;5022038;28;69682;-35
2021/04/23 06:57:20;;;;;;;3.20;2.90;;;;;;;33.52;54.34;100462.38;5033623;28;66374;-36
2021/04/23 06:59:50;;;;;;;3.15;2.95;;;;;;;33.52;54.50;100456.91;5027137;28;69732;-36
2021/04/23 07:02:19;;;;;;;3.78;2.55;;;;;;;33.53;54.59;100459.41;5031940;28;66004;-36
2021/04/23 07:04:50;;;;;;;2.83;2.63;;;;;;;33.52;54.68;100459.63;5024565;28;70156;-35
2021/04/23 07:07:19;;;;;;;2.80;2.60;;;;;;;33.56;54.51;100460.81;5023988;28;67783;-36
2021/04/23 07:09:50;;;;;;;3.20;2.90;;;;;;;33.55;54.63;100457.28;5029141;28;70243;-35
2021/04/23 07:12:20;;;;;;;3.20;2.92;;;;;;;33.61;54.29;100443.75;5033449;28;66354;-36
2021/04/23 07:14:50;;;;;;;3.90;2.72;;;;;;;33.59;54.01;100433.94;5026740;28;69690;-36
2021/04/23 07:17:21;;;;;;;5.60;2.50;;;;;;;33.61;54.23;100444.56;5023714;27;65081;-36
2021/04/23 07:19:51;;;;;;;2.97;2.60;;;;;;;33.61;54.30;100444.56;5021043;28;70121;-37
2021/04/23 07:22:21;;;;;;;4.78;2.72;;;;;;;33.61;54.42;100427.44;5031694;28;66281;-36
2021/04/23 07:24:50;;;;;;;2.83;2.63;;;;;;;33.59;54.26;100427.69;5021950;28;69976;-37
2021/04/23 07:27:20;;;;;;;6.38;2.45;;;;;;;33.62;54.25;100429.06;5029294;28;65871;-35
2021/04/23 07:29:50;;;;;;;3.40;3.10;;;;;;;33.60;54.53;100426.63;5027535;28;69929;-36
2021/04/23 07:32:20;;;;;;;2.65;2.45;;;;;;;33.61;54.28;100422.00;5023666;28;65263;-36
2021/04/23 07:34:50;;;;;;;7.60;2.22;;;;;;;33.61;54.27;100414.66;5031065;28;69245;-36
2021/04/23 07:37:20;;;;;;;3.83;2.40;;;;;;;33.61;54.42;100411.94;5031858;28;66673;-36
2021/04/23 07:39:50;;;;;;;5.72;2.30;;;;;;;33.63;54.08;100398.91;5025898;28;70561;-37
2021/04/23 07:42:21;;;;;;;2.72;2.53;;;;;;;33.63;54.34;100398.91;5027521;28;65216;-36
2021/04/23 07:44:51;;;;;;;2.75;2.55;;;;;;;33.63;54.20;100404.34;5027069;28;69292;-35
2021/04/23 07:47:21;;;;;;;2.63;2.25;;;;;;;33.65;53.99;100413.06;5026449;28;65209;-35
2021/04/23 07:49:51;;;;;;;2.33;2.05;;;;;;;33.63;54.21;100425.25;5027863;28;69516;-35
2021/04/23 07:52:21;;;;;;;2.63;2.10;;;;;;;33.63;54.24;100420.69;5024623;28;65976;-35
2021/04/23 07:54:51;;;;;;;2.40;2.20;;;;;;;33.59;54.31;100435.84;5023920;28;70416;-35
2021/04/23 07:57:21;;;;;;;2.50;2.30;;;;;;;33.58;54.49;100450.50;5026884;28;65933;-35
2021/04/23 07:59:51;;;;;;;2.40;2.20;;;;;;;33.59;54.71;100447.53;5033980;28;70092;-34
2021/04/23 08:02:21;;;;;;;2.22;2.10;;;;;;;33.59;54.54;100444.00;5021972;28;66357;-35
2021/04/23 08:04:51;;;;;;;2.90;2.28;;;;;;;33.58;54.65;100445.88;5028699;28;70248;-35
2021/04/23 08:07:41;;;;;;;2.63;2.28;;;;;;;33.57;55.17;100443.41;5021382;28;65501;-36
2021/04/23 08:10:13;;;;;;;2.60;2.40;;;;;;;33.56;54.79;100449.94;5024241;28;70200;-35
2021/04/23 08:12:43;;;;;;;2.75;2.55;;;;;;;33.58;54.93;100458.66;5031937;28;65199;-36
2021/04/23 08:15:14;;;;;;;2.70;2.50;;;;;;;33.59;54.88;100457.59;5025508;28;69362;-36
2021/04/23 08:17:44;;;;;;;2.83;2.55;;;;;;;33.54;55.03;100462.94;5031086;28;66127;-36
2021/04/23 08:20:15;;;;;;;4.70;2.63;;;;;;;33.55;55.28;100453.72;5022940;28;69047;-36
2021/04/23 08:22:45;;;;;;;2.90;2.70;;;;;;;33.53;55.19;100437.66;5030093;28;66200;-36
2021/04/23 08:25:17;;;;;;;3.22;3.03;;;;;;;33.52;55.27;100437.88;5031878;28;69156;-35
2021/04/23 08:27:48;;;;;;;2.88;2.67;;;;;;;33.50;55.67;100429.16;5022344;28;65906;-35
2021/04/23 08:30:22;;;;;;;6.97;3.47;;;;;;;33.51;55.48;100428.06;5022847;28;68788;-36
2021/04/23 08:32:52;;;;;;;4.57;3.03;;;;;;;33.51;55.70;100449.81;5024398;28;66072;-36
2021/04/23 08:35:22;;;;;;;4.25;3.90;;;;;;;33.49;55.65;100441.06;5023195;28;70048;-36
2021/04/23 08:37:53;;;;;;;5.43;3.58;;;;;;;33.50;55.69;100427.25;5028777;28;65205;-35
2021/04/23 08:40:23;;;;;;;3.30;3.03;;;;;;;33.51;56.06;100422.63;5024010;28;69878;-36
2021/04/23 08:42:53;;;;;;;3.85;3.45;;;;;;;33.49;56.25;100413.88;5022618;28;66162;-36
2021/04/23 08:45:23;;;;;;;5.00;3.85;;;;;;;33.47;56.38;100411.44;5030271;28;70098;-36
2021/04/23 08:47:53;;;;;;;5.20;3.92;;;;;;;33.47;56.30;100413.34;5032210;28;65863;-36
2021/04/23 08:50:25;;;;;;;5.13;3.70;;;;;;;33.43;56.14;100407.53;5021726;28;69933;-36
2021/04/23 08:52:56;;;;;;;4.25;3.80;;;;;;;33.44;56.40;100416.56;5024555;28;65899;-36
2021/04/23 08:55:27;;;;;;;5.00;3.50;;;;;;;33.46;56.30;100423.38;5024949;28;70021;-36
2021/04/23 08:58:13;;;;;;;4.55;4.03;;;;;;;33.49;56.55;100435.63;5026611;28;66303;-35
2021/04/23 09:00:43;;;;;;;3.58;3.28;;;;;;;33.47;56.50;100451.41;5022298;28;69025;-35
2021/04/23 09:03:18;;;;;;;4.18;3.78;;;;;;;33.50;56.53;100442.75;5023980;28;66097;-36
2021/04/23 09:06:07;;;;;;;4.97;3.80;;;;;;;33.44;56.56;100449.19;5019180;28;69040;-35
2021/04/23 09:08:37;;;;;;;4.38;4.05;;;;;;;33.44;56.35;100449.19;5022159;28;65332;-36
2021/04/23 09:11:19;;;;;;;5.80;3.67;;;;;;;33.37;56.80;100450.16;5030919;28;70290;-35
2021/04/23 09:13:58;;;;;;;3.45;3.25;;;;;;;33.38;56.63;100457.25;5025240;28;65775;-36
2021/04/23 09:16:59;;;;;;;4.13;3.72;;;;;;;33.27;56.91;100455.44;5027279;28;69068;-36
2021/04/23 09:19:34;;;;;;;5.88;4.18;;;;;;;33.40;56.65;100456.16;5025315;28;66284;-36
2021/04/23 09:22:07;;;;;;;7.38;3.92;;;;;;;33.33;57.00;100459.88;5027463;28;68847;-35
2021/04/23 09:24:42;;;;;;;4.53;4.13;;;;;;;33.28;56.70;100451.63;5023597;28;66275;-35
2021/04/23 09:27:18;;;;;;;4.43;3.80;;;;;;;33.33;56.90;100478.91;5023982;28;69492;-36
2021/04/23 09:29:51;;;;;;;4.30;3.90;;;;;;;33.30;56.99;100465.81;5020686;28;66012;-35
2021/04/23 09:32:27;;;;;;;4.22;3.92;;;;;;;33.32;57.18;100484.59;5019443;28;69094;-35
2021/04/23 09:35:00;;;;;;;5.47;4.93;;;;;;;33.28;57.25;100484.25;5025926;28;66285;-35
2021/04/23 09:37:40;;;;;;;4.38;3.97;;;;;;;33.27;57.29;100481.81;5022253;28;69784;-35
2021/04/23 09:40:28;;;;;;;4.90;4.15;;;;;;;33.25;57.32;100489.38;5024393;28;66338;-36
2021/04/23 09:43:00;;;;;;;4.63;4.25;;;;;;;33.28;57.29;100495.13;5031354;28;69331;-38
2021/04/23 09:45:33;;;;;;;;;;;;;;;33.23;57.12;100486.88;5024659;28;66172;-36
2021/04/23 09:48:04;;;;;;;7.53;3.83;;;;;;;33.30;57.29;100486.75;5017697;28;68888;-35
2021/04/23 09:50:38;;;;;;;3.78;3.58;;;;;;;33.28;57.19;100489.69;5029715;28;66540;-36
2021/04/23 09:53:08;;;;;;;4.20;3.90;;;;;;;33.21;57.18;100497.22;5022804;28;69830;-34
2021/04/23 09:55:39;;;;;;;4.93;3.50;;;;;;;33.20;57.45;100487.38;5018052;28;65901;-36
2021/04/23 09:58:10;;;;;;;3.22;3.03;;;;;;;33.08;57.57;100478.50;5020361;28;71325;-35
2021/04/23 10:00:41;;;;;;;3.65;3.33;;;;;;;33.05;57.72;100473.53;5024274;28;67741;-36
2021/04/23 10:03:11;;;;;;;4.30;3.13;;;;;;;33.03;57.76;100481.94;5021160;28;69440;-35
2021/04/23 10:05:43;;;;;;;8.27;3.20;;;;;;;33.04;57.47;100477.31;5030364;28;66076;-35
2021/04/23 10:08:29;;;;;;;3.42;3.13;;;;;;;32.98;57.61;100495.38;5021425;28;68557;-36
2021/04/23 10:10:59;;;;;;;3.65;3.35;;;;;;;32.98;57.88;100500.81;5024468;28;66253;-34
2021/04/23 10:13:30;;;;;;;3.40;3.10;;;;;;;32.94;57.77;100484.19;5025885;28;69955;-35
2021/04/23 10:16:00;;;;;;;;;;;;;;;32.81;58.21;100481.75;5024213;28;66613;-35
2021/04/23 10:18:32;;;;;;;3.55;3.25;;;;;;;32.89;57.78;100486.81;5021520;28;69371;-35
2021/04/23 10:21:02;;;;;;;3.20;2.90;;;;;;;32.85;58.11;100488.38;5021762;28;65014;-36
2021/04/23 10:23:32;;;;;;;3.58;3.28;;;;;;;32.86;57.96;100498.16;5032501;28;70751;-35
2021/04/23 10:26:02;;;;;;;3.78;2.97;;;;;;;32.77;58.30;100496.91;5019674;28;66047;-36
2021/04/23 10:28:35;;;;;;;4.97;3.88;;;;;;;32.54;58.71;100488.84;5023289;28;69084;-36
2021/04/23 10:31:05;;;;;;;8.32;4.25;;;;;;;32.34;60.42;100516.34;5025763;28;66174;-37
2021/04/23 10:33:36;;;;;;;9.82;4.25;;;;;;;32.19;60.76;100531.25;5025795;28;69948;-37
2021/04/23 10:36:06;;;;;;;4.13;3.83;;;;;;;32.04;61.36;100556.16;5029695;28;65212;-36
2021/04/23 10:38:38;;;;;;;4.45;4.15;;;;;;;31.92;62.09;100585.16;5022161;28;69341;-37
2021/04/23 10:41:12;;;;;;;7.40;4.50;;;;;;;31.82;62.25;100590.31;5028097;28;65520;-37
2021/04/23 10:43:54;;;;;;;6.15;4.65;;;;;;;31.77;63.36;100592.91;5020092;28;69438;-39
2021/04/23 10:46:26;;;;;;;7.68;5.10;;;;;;;31.75;63.21;100592.31;5019956;28;66311;-36
2021/04/23 10:49:07;;;;;;;6.18;5.57;;;;;;;31.69;64.05;100590.53;5024337;28;68889;-36
2021/04/23 10:51:37;;;;;;;6.50;5.50;;;;;;;31.68;63.44;100591.56;5015282;28;66392;-37
2021/04/23 10:54:15;;;;;;;6.32;5.72;;;;;;;31.58;64.17;100584.84;5023356;28;69228;-36
2021/04/23 10:56:51;;;;;;;6.10;5.60;;;;;;;31.54;65.07;100599.94;5021132;28;66556;-35
2021/04/23 10:59:21;;;;;;;6.10;5.60;;;;;;;31.63;65.16;100608.56;5017198;28;69122;-34
2021/04/23 11:01:52;;;;;;;7.15;6.55;;;;;;;31.49;65.08;100607.94;5020831;28;66077;-35
2021/04/23 11:04:21;;;;;;;8.65;7.85;;;;;;;31.39;65.33;100624.72;5023047;28;69159;-35
2021/04/23 11:06:54;;;;;;;8.23;7.47;;;;;;;31.29;65.55;100618.19;5022052;28;66705;-35
2021/04/23 11:09:24;;;;;;;11.43;8.20;;;;;;;31.29;65.20;100639.88;5020677;28;69861;-36
2021/04/23 11:12:14;;;;;;;11.20;8.60;;;;;;;31.21;66.85;100648.31;5018999;28;66048;-36
2021/04/23 11:14:45;;;;;;;9.57;8.52;;;;;;;31.16;65.48;100657.94;5029226;28;70123;-35
2021/04/23 11:17:17;;;;;;;10.82;8.98;;;;;;;31.11;66.59;100662.41;5024114;28;65259;-35
2021/04/23 11:19:49;;;;;;;8.82;7.90;;;;;;;31.07;65.53;100662.03;5026208;28;69387;-36
2021/04/23 11:22:25;;;;;;;9.52;7.78;;;;;;;31.06;66.04;100662.25;5023698;28;66109;-36
2021/04/23 11:25:16;;;;;;;9.98;7.50;;;;;;;31.00;66.32;100669.41;5022998;28;69232;-35
2021/04/23 11:28:01;;;;;;;10.38;8.15;;;;;;;31.03;66.03;100687.91;5020154;28;66147;-37
2021/04/23 11:31:08;;;;;;;12.07;7.22;;;;;;;30.95;65.50;100709.88;5019528;28;70088;-36
2021/04/23 11:33:59;;;;;;;17.08;6.95;;;;;;;30.89;65.38;100708.06;5035156;28;65963;-38
2021/04/23 11:36:31;;;;;;;10.50;6.75;;;;;;;30.89;64.64;100716.19;5024698;28;69967;-36
2021/04/23 11:39:04;;;;;;;;;;;;;;;30.75;65.85;100733.59;5026032;28;65382;-36
2021/04/23 11:41:34;;;;;;;10.55;9.38;;;;;;;30.81;65.30;100738.16;5024048;28;70169;-34
2021/04/23 11:44:40;;;;;;;12.20;10.13;;;;;;;30.75;66.03;100731.72;5021466;28;64546;-36
2021/04/23 11:47:11;;;;;;;12.45;10.80;;;;;;;30.89;65.48;100748.69;5021055;28;70226;-36
2021/04/23 11:49:41;;;;;;;13.23;11.05;;;;;;;30.98;64.91;100760.06;5022370;28;66396;-36